Time;durP1;ratioP1;P1;durP2;ratioP2;P2;SDS_P1;SDS_P2;PMS_P1;PMS_P2;Temp;Humidity;BMP_temperature;BMP_pressure;BME280_temperature;BME280_humidity;BME280_pressure;Samples;Min_cycle;Max_cycle;Signal;HPM_P1;HPM_P2
2024/04/05 00:01:09;;;;;;;8.80;6.60;;;;;;;5.56;61.02;99555.13;107318;1256;73356;-39
2024/04/05 00:03:37;;;;;;;11.80;6.90;;;;;;;5.58;61.12;99559.45;107276;1256;67600;-38
2024/04/05 00:06:05;;;;;;;15.10;7.10;;;;;;;5.60;61.23;99556.32;107384;1255;72327;-39
2024/04/05 00:08:33;;;;;;;10.80;7.00;;;;;;;5.60;61.35;99552.70;107246;1255;60381;-39
2024/04/05 00:11:00;;;;;;;9.60;7.40;;;;;;;5.60;61.32;99553.22;107134;1254;187968;-38
2024/04/05 00:15:19;;;;;;;11.50;7.50;;;;;;;5.58;61.41;99555.44;104205;1292;600202;-38
2024/04/05 00:17:46;;;;;;;12.10;7.90;;;;;;;5.56;61.42;99557.20;106609;1266;59156;-38
2024/04/05 00:20:14;;;;;;;9.50;6.80;;;;;;;5.58;61.39;99560.27;106694;1267;60041;-38
2024/04/05 00:22:41;;;;;;;12.90;7.30;;;;;;;5.64;61.31;99556.61;106640;1267;73020;-38
2024/04/05 00:25:09;;;;;;;10.30;7.00;;;;;;;5.67;61.39;99563.50;106615;1267;67582;-38
2024/04/05 00:27:36;;;;;;;11.40;7.40;;;;;;;5.71;61.32;99563.69;106625;1267;71344;-38
2024/04/05 00:30:07;;;;;;;10.00;7.20;;;;;;;5.77;61.18;99566.83;106651;1267;171456;-38
2024/04/05 00:32:35;;;;;;;12.00;7.00;;;;;;;5.81;61.03;99565.45;106831;1263;59621;-38
2024/04/05 00:35:03;;;;;;;11.70;7.90;;;;;;;5.83;60.88;99566.45;106747;1264;73093;-38
2024/04/05 00:37:31;;;;;;;11.80;8.20;;;;;;;5.84;60.84;99567.27;106736;1264;67644;-38
2024/04/05 00:39:58;;;;;;;12.50;7.90;;;;;;;5.77;60.69;99557.84;106730;1266;71698;-38
2024/04/05 00:42:25;;;;;;;11.90;7.70;;;;;;;5.79;60.73;99562.20;106723;1263;60538;-38
2024/04/05 00:44:53;;;;;;;10.30;7.90;;;;;;;5.73;60.74;99564.20;106709;1270;60550;-38
2024/04/05 00:47:20;;;;;;;10.70;7.30;;;;;;;5.66;60.83;99564.48;106693;1263;72548;-38
2024/04/05 00:49:48;;;;;;;11.00;8.00;;;;;;;5.60;60.98;99561.38;106641;1264;66470;-38
2024/04/05 00:52:16;;;;;;;11.50;8.00;;;;;;;5.56;61.17;99564.20;106613;1270;72740;-38
2024/04/05 00:54:43;;;;;;;11.00;8.00;;;;;;;5.50;61.19;99565.20;107054;1260;60421;-38
2024/04/05 00:57:11;;;;;;;11.60;8.00;;;;;;;5.44;61.50;99569.77;107078;1256;60398;-38
2024/04/05 00:59:39;;;;;;;11.30;7.70;;;;;;;5.41;61.57;99568.04;107088;1257;73849;-38
2024/04/05 01:02:07;;;;;;;10.80;7.40;;;;;;;5.40;61.63;99565.51;107071;1257;66624;-39
2024/04/05 01:04:35;;;;;;;12.30;7.30;;;;;;;5.45;61.67;99559.29;107141;1260;71087;-39
2024/04/05 01:07:02;;;;;;;12.60;7.50;;;;;;;5.50;61.82;99555.88;107148;1257;60809;-39
2024/04/05 01:09:30;;;;;;;10.40;7.20;;;;;;;5.51;61.73;99558.45;107092;1257;60362;-39
2024/04/05 01:11:58;;;;;;;10.10;7.40;;;;;;;5.54;61.60;99563.26;107276;1257;73827;-39
2024/04/05 01:14:25;;;;;;;11.90;7.80;;;;;;;5.56;61.56;99563.04;107139;1257;66311;-39
2024/04/05 01:16:53;;;;;;;14.90;7.70;;;;;;;5.55;61.61;99556.55;107195;1257;72828;-39
2024/04/05 01:19:20;;;;;;;11.00;7.30;;;;;;;5.55;61.50;99551.23;107117;1257;60665;-39
2024/04/05 01:21:51;;;;;;;11.40;7.10;;;;;;;5.51;61.55;99554.84;107122;1257;60539;-39
2024/04/05 01:24:18;;;;;;;12.50;7.50;;;;;;;5.46;61.66;99551.58;107204;1255;71673;-39
2024/04/05 01:26:46;;;;;;;12.00;7.70;;;;;;;5.43;61.64;99550.98;107127;1257;66302;-39
2024/04/05 01:29:13;;;;;;;11.70;7.60;;;;;;;5.39;61.63;99552.58;107166;1262;72681;-39
2024/04/05 01:31:41;;;;;;;11.70;7.70;;;;;;;5.31;61.80;99551.16;107218;1263;60421;-39
2024/04/05 01:34:08;;;;;;;12.50;7.80;;;;;;;5.23;61.88;99553.05;107217;1256;58769;-39
2024/04/05 01:36:36;;;;;;;10.90;7.60;;;;;;;5.16;62.05;99555.43;107235;1261;72629;-39
2024/04/05 01:39:03;;;;;;;8.90;6.60;;;;;;;5.11;62.39;99560.76;107250;1256;66591;-39
2024/04/05 01:41:32;;;;;;;8.60;6.00;;;;;;;5.14;62.19;99570.80;107227;1256;71383;-39
2024/04/05 01:44:02;;;;;;;9.50;6.20;;;;;;;5.22;62.16;99572.27;107179;1261;60467;-39
2024/04/05 01:46:29;;;;;;;11.80;6.90;;;;;;;5.25;62.10;99573.79;107225;1256;59674;-39
2024/04/05 01:48:57;;;;;;;13.40;6.50;;;;;;;5.24;62.16;99582.36;107123;1262;72663;-39
2024/04/05 01:51:24;;;;;;;11.40;6.80;;;;;;;5.23;62.00;99585.61;107095;1257;67662;-39
2024/04/05 01:53:52;;;;;;;9.90;6.90;;;;;;;5.23;61.94;99587.28;107093;1257;72682;-39
2024/04/05 01:56:19;;;;;;;10.60;6.60;;;;;;;5.23;62.04;99584.54;107198;1257;60453;-39
2024/04/05 01:58:47;;;;;;;14.40;7.60;;;;;;;5.22;62.05;99586.31;107107;1257;59579;-39
2024/04/05 02:01:14;;;;;;;13.00;6.50;;;;;;;5.19;62.02;99586.95;107147;1256;73865;-39
2024/04/05 02:03:42;;;;;;;10.00;6.20;;;;;;;5.12;61.94;99589.10;107167;1262;66295;-39
2024/04/05 02:06:13;;;;;;;12.00;7.60;;;;;;;5.05;62.09;99589.10;107169;1257;72664;-39
2024/04/05 02:08:41;;;;;;;13.40;7.30;;;;;;;4.98;62.05;99589.19;107083;1257;60387;-39
2024/04/05 02:11:08;;;;;;;9.80;6.80;;;;;;;4.93;62.15;99596.77;107202;1257;60280;-39
2024/04/05 02:13:37;;;;;;;12.50;6.60;;;;;;;4.86;62.35;99596.25;107185;1257;73869;-39
2024/04/05 02:16:04;;;;;;;9.40;6.70;;;;;;;4.83;62.44;99598.40;107198;1257;66875;-39
2024/04/05 02:18:32;;;;;;;9.10;6.00;;;;;;;4.77;62.61;99593.84;107184;1262;71790;-39
2024/04/05 02:21:00;;;;;;;11.30;6.80;;;;;;;4.70;62.57;99589.92;107231;1257;60475;-39
2024/04/05 02:23:27;;;;;;;9.80;6.10;;;;;;;4.62;62.84;99589.02;107224;1257;60549;-39
2024/04/05 02:25:54;;;;;;;10.70;5.90;;;;;;;4.62;62.70;99587.70;107066;1256;72644;-39
2024/04/05 02:28:22;;;;;;;8.90;5.90;;;;;;;4.64;62.75;99585.91;107195;1257;66266;-39
2024/04/05 02:30:49;;;;;;;9.50;6.20;;;;;;;4.60;62.88;99586.85;107209;1257;71300;-39
2024/04/05 02:33:16;;;;;;;8.60;5.60;;;;;;;4.58;62.94;99586.95;107191;1258;59725;-38
2024/04/05 02:35:44;;;;;;;11.60;6.30;;;;;;;4.58;62.89;99581.86;107223;1256;60456;-38
2024/04/05 02:38:11;;;;;;;12.00;5.80;;;;;;;4.50;62.88;99583.54;107190;1257;73856;-38
2024/04/05 02:40:38;;;;;;;10.70;6.90;;;;;;;4.48;63.11;99588.00;107204;1257;66336;-39
2024/04/05 02:43:06;;;;;;;10.90;6.30;;;;;;;4.38;63.20;99587.76;107211;1257;72741;-39
2024/04/05 02:45:33;;;;;;;11.60;6.50;;;;;;;4.29;63.54;99587.01;107047;1263;61501;-39
2024/04/05 02:48:00;;;;;;;9.20;6.20;;;;;;;4.22;63.76;99589.92;107089;1257;60309;-38
2024/04/05 02:50:28;;;;;;;9.90;6.30;;;;;;;4.17;63.86;99590.20;107142;1257;72581;-38
2024/04/05 02:52:55;;;;;;;9.20;5.90;;;;;;;4.12;64.06;99591.18;107204;1257;67992;-38
2024/04/05 02:55:23;;;;;;;9.00;5.60;;;;;;;4.14;64.06;99592.30;107159;1257;71427;-39
2024/04/05 02:57:50;;;;;;;9.30;5.50;;;;;;;4.23;63.94;99591.51;107212;1257;60421;-39
2024/04/05 03:00:18;;;;;;;10.40;5.70;;;;;;;4.27;64.10;99590.22;107229;1257;59586;-38
2024/04/05 03:02:45;;;;;;;8.10;5.70;;;;;;;4.27;64.14;99593.16;107183;1257;73847;-38
2024/04/05 03:05:13;;;;;;;8.50;5.50;;;;;;;4.29;64.06;99596.23;107230;1256;66325;-39
2024/04/05 03:07:41;;;;;;;8.20;5.30;;;;;;;4.30;64.20;99601.10;107250;1257;72753;-39
2024/04/05 03:10:08;;;;;;;7.30;5.30;;;;;;;4.31;64.28;99601.52;107244;1262;60520;-39
2024/04/05 03:12:36;;;;;;;10.10;5.90;;;;;;;4.30;64.27;99604.10;107229;1257;60340;-39
2024/04/05 03:15:04;;;;;;;9.20;5.90;;;;;;;4.30;64.38;99609.85;107248;1257;72597;-39
2024/04/05 03:17:31;;;;;;;10.70;6.30;;;;;;;4.29;64.50;99610.35;107551;1252;67053;-39
2024/04/05 03:19:59;;;;;;;9.90;6.00;;;;;;;4.27;64.51;99611.91;107490;1258;72657;-39
2024/04/05 03:22:27;;;;;;;10.80;5.70;;;;;;;4.24;64.28;99607.02;106761;1254;1002988;-39
2024/04/05 03:24:54;;;;;;;7.70;5.40;;;;;;;4.20;64.50;99599.71;107516;1253;60322;-39
2024/04/05 03:27:22;;;;;;;8.30;5.70;;;;;;;4.21;64.63;99600.15;107514;1254;73000;-39
2024/04/05 03:29:50;;;;;;;8.00;5.60;;;;;;;4.23;64.59;99601.23;107522;1254;67632;-39
2024/04/05 03:32:18;;;;;;;9.90;6.30;;;;;;;4.22;64.88;99602.01;107571;1254;71371;-39
2024/04/05 03:34:48;;;;;;;9.20;5.80;;;;;;;4.22;64.86;99604.95;107387;1253;60417;-39
2024/04/05 03:37:16;;;;;;;8.30;5.90;;;;;;;4.24;64.96;99601.69;107419;1253;60323;-39
2024/04/05 03:39:43;;;;;;;9.40;5.80;;;;;;;4.26;64.90;99603.30;107467;1253;73851;-39
2024/04/05 03:42:11;;;;;;;9.10;6.20;;;;;;;4.26;65.00;99602.06;107493;1254;67551;-39
2024/04/05 03:44:38;;;;;;;8.90;6.30;;;;;;;4.26;64.94;99602.69;107492;1254;72817;-39
2024/04/05 03:47:05;;;;;;;9.50;6.00;;;;;;;4.24;64.86;99603.79;107489;1254;60270;-39
2024/04/05 03:49:33;;;;;;;10.10;6.30;;;;;;;4.20;64.90;99600.94;107576;1254;60331;-39
2024/04/05 03:52:00;;;;;;;8.70;5.50;;;;;;;4.22;65.01;99609.06;107432;1252;73818;-39
2024/04/05 03:54:27;;;;;;;7.60;5.70;;;;;;;4.27;65.03;99611.60;107523;1253;66412;-39
2024/04/05 03:56:55;;;;;;;9.60;6.20;;;;;;;4.27;65.38;99615.16;107515;1257;72694;-39
2024/04/05 03:59:22;;;;;;;11.50;6.80;;;;;;;4.30;65.52;99612.68;107498;1253;60457;-39
2024/04/05 04:01:52;;;;;;;9.30;6.50;;;;;;;4.30;65.47;99617.29;107521;1254;60496;-39
2024/04/05 04:04:20;;;;;;;9.30;6.10;;;;;;;4.28;65.57;99619.77;107576;1254;72593;-39
2024/04/05 04:06:47;;;;;;;9.30;6.30;;;;;;;4.25;65.66;99620.98;107519;1254;67648;-39
2024/04/05 04:09:15;;;;;;;10.40;6.30;;;;;;;4.22;65.89;99622.48;107527;1260;72693;-39
2024/04/05 04:11:43;;;;;;;12.30;6.50;;;;;;;4.24;65.92;99615.82;107499;1253;61255;-39
2024/04/05 04:14:13;;;;;;;8.00;5.40;;;;;;;4.32;65.83;99623.58;107567;1253;60396;-39
2024/04/05 04:16:41;;;;;;;9.30;5.80;;;;;;;4.35;66.06;99626.35;107539;1254;73772;-39
2024/04/05 04:19:11;;;;;;;9.50;5.50;;;;;;;4.39;65.94;99629.39;107538;1259;67843;-38
2024/04/05 04:21:38;;;;;;;;;;;;;;;4.44;65.82;99634.75;107412;1254;73830;-38
2024/04/05 04:24:06;;;;;;;8.30;5.60;;;;;;;4.49;65.80;99636.20;107392;1254;61346;-38
2024/04/05 04:26:34;;;;;;;7.40;5.50;;;;;;;4.53;65.86;99642.43;107468;1253;61083;-38
2024/04/05 04:29:03;;;;;;;9.40;5.90;;;;;;;4.57;65.98;99644.02;107520;1254;73412;-38
2024/04/05 04:31:30;;;;;;;9.40;5.80;;;;;;;4.59;65.91;99651.42;107524;1254;66689;-38
2024/04/05 04:33:58;;;;;;;8.00;5.30;;;;;;;4.63;65.82;99651.95;107435;1254;71390;-38
2024/04/05 04:36:25;;;;;;;7.60;5.20;;;;;;;4.74;65.68;99650.44;106650;1254;1016280;-38
2024/04/05 04:38:53;;;;;;;7.90;5.50;;;;;;;4.88;65.55;99652.67;107435;1252;61151;-38
2024/04/05 04:41:20;;;;;;;9.40;5.30;;;;;;;4.94;65.55;99651.10;107451;1253;73362;-38
2024/04/05 04:43:48;;;;;;;7.10;5.00;;;;;;;5.00;65.76;99650.44;107481;1254;67009;-38
2024/04/05 04:46:15;;;;;;;9.40;4.90;;;;;;;5.08;65.77;99650.88;107523;1254;72727;-39
2024/04/05 04:48:43;;;;;;;8.30;5.50;;;;;;;5.16;65.70;99656.10;107476;1254;60980;-38
2024/04/05 04:51:10;;;;;;;7.50;5.20;;;;;;;5.23;65.44;99654.17;107534;1256;61117;-39
2024/04/05 04:53:38;;;;;;;7.60;4.90;;;;;;;5.28;65.14;99658.00;107573;1255;73382;-38
2024/04/05 04:56:05;;;;;;;7.70;5.00;;;;;;;5.28;65.04;99654.55;107519;1253;66876;-39
2024/04/05 04:58:34;;;;;;;5.90;4.60;;;;;;;5.34;64.95;99659.90;107518;1254;72692;-39
2024/04/05 05:01:01;;;;;;;7.20;4.60;;;;;;;5.41;64.76;99659.23;107572;1254;59947;-39
2024/04/05 05:03:28;;;;;;;9.20;5.10;;;;;;;5.47;64.84;99663.55;107507;1254;61132;-39
2024/04/05 05:05:59;;;;;;;8.80;5.40;;;;;;;5.54;64.70;99658.29;107413;1258;74709;-38
2024/04/05 05:08:28;;;;;;;7.70;5.10;;;;;;;5.59;64.60;99657.69;107454;1254;67690;-39
2024/04/05 05:10:56;;;;;;;8.80;5.70;;;;;;;5.62;64.47;99657.75;107582;1254;71818;-38
2024/04/05 05:13:23;;;;;;;25.20;15.10;;;;;;;5.66;64.39;99662.14;107424;1254;61215;-38
2024/04/05 05:15:51;;;;;;;8.90;6.50;;;;;;;5.70;64.51;99663.90;107450;1253;61048;-38
2024/04/05 05:18:18;;;;;;;8.00;4.90;;;;;;;5.76;64.53;99666.23;107541;1254;73874;-38
2024/04/05 05:20:51;;;;;;;8.40;4.90;;;;;;;5.79;64.53;99658.16;107328;1254;66424;-39
2024/04/05 05:23:19;;;;;;;8.20;4.50;;;;;;;5.92;64.37;99661.13;107418;1253;71716;-39
2024/04/05 05:25:47;;;;;;;7.20;4.30;;;;;;;6.07;64.00;99653.96;107453;1254;61260;-39
2024/04/05 05:28:16;;;;;;;6.80;4.50;;;;;;;6.14;63.88;99650.04;107511;1253;61228;-39
2024/04/05 05:30:43;;;;;;;7.20;4.10;;;;;;;6.20;63.92;99654.11;107502;1259;74679;-39
2024/04/05 05:33:11;;;;;;;7.40;4.50;;;;;;;6.25;63.26;99655.16;107499;1253;67633;-38
2024/04/05 05:35:38;;;;;;;6.80;4.20;;;;;;;6.29;63.46;99656.51;107484;1258;72507;-39
2024/04/05 05:38:06;;;;;;;9.20;3.90;;;;;;;6.40;63.36;99661.45;107491;1254;61409;-39
2024/04/05 05:40:33;;;;;;;6.00;3.90;;;;;;;6.50;63.12;99659.42;107446;1254;61125;-39
2024/04/05 05:43:00;;;;;;;5.60;3.70;;;;;;;6.64;62.71;99655.73;107508;1254;73400;-39
2024/04/05 05:45:28;;;;;;;6.40;3.50;;;;;;;6.76;61.77;99657.43;107477;1253;66858;-38
2024/04/05 05:47:56;;;;;;;5.30;3.20;;;;;;;6.86;60.68;99657.96;107512;1253;72873;-39
2024/04/05 05:50:24;;;;;;;5.60;3.30;;;;;;;6.94;60.77;99656.48;107474;1253;61409;-39
2024/04/05 05:52:52;;;;;;;4.00;3.20;;;;;;;7.05;60.00;99660.35;107495;1253;61128;-39
2024/04/05 05:55:22;;;;;;;4.50;2.80;;;;;;;7.12;59.51;99662.20;107512;1254;74672;-38
2024/04/05 05:57:49;;;;;;;;;;;;;;;7.21;58.88;99660.20;107482;1253;66713;-38
2024/04/05 06:00:17;;;;;;;5.70;3.60;;;;;;;7.27;58.71;99656.17;107432;1254;73852;-38
2024/04/05 06:02:44;;;;;;;4.60;3.10;;;;;;;7.32;58.71;99661.63;107321;1253;61385;-38
2024/04/05 06:05:12;;;;;;;4.90;3.40;;;;;;;7.38;58.28;99663.48;107455;1254;61098;-38
2024/04/05 06:07:39;;;;;;;5.40;3.40;;;;;;;7.44;57.84;99665.27;107459;1253;75098;-38
2024/04/05 06:10:07;;;;;;;4.80;3.30;;;;;;;7.47;57.54;99668.77;107490;1254;67766;-39
2024/04/05 06:12:39;;;;;;;6.10;3.10;;;;;;;7.51;57.35;99666.74;107471;1254;73563;-39
2024/04/05 06:15:07;;;;;;;4.40;3.00;;;;;;;7.54;57.11;99668.92;107470;1254;61324;-39
2024/04/05 06:17:37;;;;;;;6.10;3.20;;;;;;;7.59;57.09;99666.34;107504;1257;62184;-38
2024/04/05 06:20:06;;;;;;;5.00;3.00;;;;;;;7.65;57.16;99668.73;107489;1254;74706;-38
2024/04/05 06:22:34;;;;;;;4.90;3.20;;;;;;;7.75;57.24;99667.01;107452;1254;65492;-39
2024/04/05 06:25:02;;;;;;;5.00;2.80;;;;;;;7.89;57.08;99662.07;107370;1254;72064;-39
2024/04/05 06:27:29;;;;;;;4.10;3.00;;;;;;;8.06;56.66;99663.41;107571;1256;61500;-39
2024/04/05 06:29:57;;;;;;;5.00;3.10;;;;;;;8.26;56.69;99665.41;107507;1254;61310;-39
2024/04/05 06:32:24;;;;;;;4.30;2.70;;;;;;;8.48;55.61;99663.05;107475;1253;74674;-38
2024/04/05 06:34:51;;;;;;;5.30;3.00;;;;;;;8.62;55.06;99659.81;107485;1254;68180;-39
2024/04/05 06:37:19;;;;;;;3.90;3.10;;;;;;;8.74;54.52;99658.70;107475;1253;72894;-39
2024/04/05 06:39:46;;;;;;;4.90;3.10;;;;;;;8.84;54.61;99660.17;107347;1256;61304;-39
2024/04/05 06:42:14;;;;;;;4.40;3.00;;;;;;;8.95;54.34;99660.33;107402;1252;61215;-39
2024/04/05 06:44:41;;;;;;;5.60;3.20;;;;;;;9.07;54.13;99657.83;107478;1259;74793;-39
2024/04/05 06:47:09;;;;;;;5.30;2.70;;;;;;;9.17;53.78;99655.26;107474;1254;68145;-39
2024/04/05 06:49:37;;;;;;;5.00;3.30;;;;;;;9.25;53.90;99651.09;107438;1257;72676;-39
2024/04/05 06:52:06;;;;;;;3.70;2.90;;;;;;;9.37;53.32;99655.30;107353;1253;61528;-39
2024/04/05 06:54:34;;;;;;;4.40;3.00;;;;;;;9.46;52.98;99649.84;107429;1254;61122;-39
2024/04/05 06:57:02;;;;;;;4.90;3.10;;;;;;;9.52;52.83;99640.02;107421;1259;76830;-39
2024/04/05 06:59:33;;;;;;;4.80;3.00;;;;;;;9.58;52.81;99638.95;107431;1254;70214;-39
2024/04/05 07:02:00;;;;;;;5.50;3.00;;;;;;;9.60;52.62;99643.20;107489;1255;72820;-39
2024/04/05 07:04:31;;;;;;;4.10;2.50;;;;;;;9.64;52.34;99645.36;107447;1254;61194;-39
2024/04/05 07:06:59;;;;;;;4.20;2.70;;;;;;;9.69;52.21;99645.14;107502;1253;61324;-39
2024/04/05 07:09:28;;;;;;;5.30;2.90;;;;;;;9.76;52.12;99654.35;107436;1254;74815;-39
2024/04/05 07:11:56;;;;;;;4.10;2.50;;;;;;;9.83;52.00;99657.65;107442;1254;66484;-39
2024/04/05 07:14:23;;;;;;;4.90;2.60;;;;;;;9.92;51.64;99655.18;107449;1254;73093;-39
2024/04/05 07:16:52;;;;;;;3.80;2.60;;;;;;;9.99;51.14;99651.33;107417;1257;61793;-39
2024/04/05 07:19:21;;;;;;;4.00;2.70;;;;;;;10.06;51.40;99655.39;107482;1253;62540;-39
2024/04/05 07:21:48;;;;;;;6.70;3.50;;;;;;;10.17;51.00;99650.58;107445;1254;74805;-39
2024/04/05 07:24:16;;;;;;;4.10;2.80;;;;;;;10.25;50.95;99646.14;107464;1254;65768;-39
2024/04/05 07:26:43;;;;;;;3.20;2.30;;;;;;;10.33;51.11;99649.58;107423;1256;73021;-39
2024/04/05 07:29:17;;;;;;;4.50;3.00;;;;;;;10.42;50.68;99650.90;107444;1254;61164;-39
2024/04/05 07:31:48;;;;;;;6.20;2.90;;;;;;;10.50;50.54;99652.70;109179;1253;62314;-36
2024/04/05 07:34:15;;;;;;;3.90;2.80;;;;;;;10.54;50.45;99654.20;107355;1257;74675;-37
2024/04/05 07:36:44;;;;;;;4.30;2.70;;;;;;;10.63;50.54;99654.02;107446;1254;66769;-37
2024/04/05 07:39:12;;;;;;;4.90;2.80;;;;;;;10.75;49.91;99655.16;107548;1253;71455;-37
2024/04/05 07:41:39;;;;;;;3.40;2.30;;;;;;;10.88;49.54;99658.31;107276;1254;61288;-37
2024/04/05 07:44:07;;;;;;;4.40;3.00;;;;;;;11.02;49.42;99662.73;107391;1252;61333;-37
2024/04/05 07:46:34;;;;;;;3.50;2.40;;;;;;;11.17;49.32;99660.09;107434;1254;75223;-37
2024/04/05 07:49:02;;;;;;;5.90;2.60;;;;;;;11.39;49.01;99658.38;107409;1254;70320;-37
2024/04/05 07:51:29;;;;;;;6.50;2.50;;;;;;;11.66;48.72;99660.33;107530;1257;72499;-37
2024/04/05 07:53:57;;;;;;;3.70;2.60;;;;;;;11.98;47.77;99659.85;107505;1254;61202;-37
2024/04/05 07:56:27;;;;;;;3.00;2.30;;;;;;;12.23;47.15;99655.70;107510;1254;62279;-38
2024/04/05 07:58:54;;;;;;;4.00;2.50;;;;;;;12.46;46.46;99650.10;107417;1254;74791;-38
2024/04/05 08:01:23;;;;;;;4.50;2.60;;;;;;;12.71;46.15;99647.61;107440;1254;68441;-37
2024/04/05 08:03:51;;;;;;;2.90;2.50;;;;;;;12.89;45.88;99646.55;107424;1256;74885;-38
2024/04/05 08:06:18;;;;;;;4.30;2.30;;;;;;;12.97;45.25;99650.92;107470;1256;60447;-38
2024/04/05 08:08:46;;;;;;;5.10;2.70;;;;;;;12.98;44.99;99644.57;107607;1254;61154;-38
2024/04/05 08:11:13;;;;;;;3.60;2.70;;;;;;;13.07;45.03;99649.44;107510;1252;74785;-37
2024/04/05 08:13:40;;;;;;;4.00;2.40;;;;;;;13.13;44.40;99643.93;107506;1254;66903;-37
2024/04/05 08:16:08;;;;;;;4.00;2.40;;;;;;;13.22;44.50;99646.86;107459;1254;74955;-37
2024/04/05 08:18:36;;;;;;;3.50;2.80;;;;;;;13.35;44.54;99642.98;107495;1254;61284;-37
2024/04/05 08:21:04;;;;;;;6.10;2.80;;;;;;;13.55;44.14;99639.40;107512;1254;61359;-37
2024/04/05 08:23:32;;;;;;;5.50;2.80;;;;;;;13.73;43.50;99639.81;107530;1254;73758;-37
2024/04/05 08:26:00;;;;;;;4.80;2.70;;;;;;;13.76;42.17;99643.20;107485;1254;68373;-38
2024/04/05 08:28:28;;;;;;;7.70;3.60;;;;;;;13.70;42.77;99641.66;107552;1254;73109;-37
2024/04/05 08:30:55;;;;;;;3.30;2.50;;;;;;;13.74;43.25;99643.27;107477;1253;62188;-37
2024/04/05 08:33:28;;;;;;;4.00;2.80;;;;;;;13.85;41.93;99641.44;107501;1253;62699;-37
2024/04/05 08:35:55;;;;;;;6.60;2.70;;;;;;;13.94;42.01;99638.79;107484;1254;75309;-37
2024/04/05 08:38:23;;;;;;;3.70;2.40;;;;;;;14.08;41.99;99639.31;107513;1254;67891;-37
2024/04/05 08:40:51;;;;;;;4.40;2.80;;;;;;;14.24;41.80;99634.23;107491;1254;71453;-38
2024/04/05 08:43:19;;;;;;;4.90;2.90;;;;;;;14.43;41.52;99633.17;107484;1254;60055;-38
2024/04/05 08:45:49;;;;;;;3.60;2.40;;;;;;;14.58;41.20;99632.27;107481;1254;61237;-38
2024/04/05 08:48:20;;;;;;;4.50;2.80;;;;;;;14.73;40.99;99626.05;107488;1253;76164;-38
2024/04/05 08:50:47;;;;;;;6.60;3.10;;;;;;;14.85;41.28;99624.27;107471;1253;68105;-38
2024/04/05 08:53:15;;;;;;;8.80;2.90;;;;;;;14.99;40.63;99623.71;107496;1259;74831;-38
2024/04/05 08:55:44;;;;;;;8.60;2.80;;;;;;;14.99;40.42;99609.60;107451;1254;60577;-38
2024/04/05 08:58:13;;;;;;;4.10;2.70;;;;;;;15.10;39.41;99618.23;107395;1254;61393;-38
2024/04/05 09:00:41;;;;;;;6.20;3.10;;;;;;;15.14;39.22;99616.14;107367;1258;73488;-38
2024/04/05 09:03:10;;;;;;;4.80;2.70;;;;;;;15.24;39.53;99612.83;107397;1254;68328;-38
2024/04/05 09:05:37;;;;;;;4.00;2.60;;;;;;;15.44;39.16;99614.86;107441;1254;74884;-38
2024/04/05 09:08:06;;;;;;;5.50;2.40;;;;;;;15.63;38.67;99612.27;107496;1254;60448;-38
2024/04/05 09:10:33;;;;;;;3.70;2.60;;;;;;;15.85;38.63;99609.05;107611;1254;61231;-38
2024/04/05 09:13:04;;;;;;;3.10;2.50;;;;;;;16.10;38.23;99608.36;107540;1254;75026;-38
2024/04/05 09:15:32;;;;;;;2.60;2.10;;;;;;;16.31;38.02;99605.56;107515;1254;69195;-38
2024/04/05 09:18:00;;;;;;;5.80;3.00;;;;;;;16.55;37.35;99604.30;107584;1254;71534;-38
2024/04/05 09:20:30;;;;;;;5.70;2.80;;;;;;;16.78;36.82;99603.33;107502;1254;61213;-38
2024/04/05 09:23:02;;;;;;;4.20;2.50;;;;;;;16.98;36.47;99602.42;107531;1254;61234;-38
2024/04/05 09:25:32;;;;;;;4.20;2.30;;;;;;;17.17;35.35;99601.33;107488;1252;73731;-39
2024/04/05 09:28:16;;;;;;;3.40;2.70;;;;;;;17.30;34.76;99607.86;107469;1254;68371;-38
2024/04/05 09:30:46;;;;;;;4.30;2.40;;;;;;;17.38;34.41;99605.94;107504;1254;71689;-36
2024/04/05 09:33:20;;;;;;;5.50;2.90;;;;;;;17.48;34.46;99603.86;107373;1254;61286;-38
2024/04/05 09:35:48;;;;;;;6.60;2.60;;;;;;;17.70;34.42;99598.83;107517;1253;61177;-38
2024/04/05 09:38:17;;;;;;;;;;;;;;;17.93;34.24;99594.13;107510;1252;74888;-38
2024/04/05 09:40:44;;;;;;;7.30;3.00;;;;;;;18.13;34.25;99594.29;107363;1254;68056;-38
2024/04/05 09:43:12;;;;;;;5.10;2.50;;;;;;;18.35;34.12;99594.17;107444;1254;72465;-38
2024/04/05 09:45:40;;;;;;;5.40;2.80;;;;;;;18.56;33.70;99586.79;107489;1254;59986;-38
2024/04/05 09:48:08;;;;;;;5.90;2.80;;;;;;;18.83;33.12;99588.96;107472;1253;61312;-37
2024/04/05 09:50:35;;;;;;;3.40;2.50;;;;;;;19.07;32.56;99589.92;107464;1254;76871;-37
2024/04/05 09:53:03;;;;;;;3.80;2.60;;;;;;;19.25;32.22;99586.24;107402;1254;68539;-38
2024/04/05 09:55:37;;;;;;;4.00;2.40;;;;;;;19.41;31.36;99584.01;107517;1258;70954;-38
2024/04/05 09:58:07;;;;;;;3.80;2.70;;;;;;;19.47;30.23;99581.67;107527;1254;61248;-38
2024/04/05 10:00:36;;;;;;;3.70;2.50;;;;;;;19.44;30.97;99579.96;107495;1252;61228;-38
2024/04/05 10:03:05;;;;;;;3.70;2.30;;;;;;;19.56;30.08;99578.65;107461;1253;76882;-38
2024/04/05 10:05:34;;;;;;;4.90;2.20;;;;;;;19.58;30.19;99576.88;107413;1258;66615;-37
2024/04/05 10:08:15;;;;;;;4.00;2.40;;;;;;;19.63;30.01;99573.76;107459;1254;72787;-38
2024/04/05 10:10:43;;;;;;;3.50;2.20;;;;;;;19.75;29.77;99578.85;107376;1254;61292;-37
2024/04/05 10:13:16;;;;;;;3.90;2.70;;;;;;;19.83;29.45;99581.46;107479;1254;61122;-38
2024/04/05 10:15:58;;;;;;;3.90;2.40;;;;;;;19.83;29.56;99580.45;107517;1254;75035;-37
2024/04/05 10:18:30;;;;;;;2.30;2.00;;;;;;;19.90;29.69;99578.52;107633;1254;66790;-39
2024/04/05 10:23:33;;;;;;;6.00;2.30;;;;;;;20.46;29.75;99580.39;104431;1289;600628;-39
2024/04/05 10:26:01;;;;;;;3.90;2.20;;;;;;;20.56;29.24;99577.95;106645;1266;62047;-38
2024/04/05 10:28:29;;;;;;;29.50;3.60;;;;;;;20.42;29.63;99575.95;106759;1264;60102;-38
2024/04/05 10:31:00;;;;;;;3.70;2.50;;;;;;;20.26;30.22;99580.70;106679;1268;71026;-38
2024/04/05 10:33:29;;;;;;;3.50;2.20;;;;;;;20.20;29.97;99579.39;106736;1264;70298;-39
2024/04/05 10:35:57;;;;;;;3.40;2.20;;;;;;;20.19;30.35;99578.95;106686;1264;72060;-38
2024/04/05 10:38:25;;;;;;;5.80;2.30;;;;;;;20.24;30.39;99576.17;106815;1263;60315;-39
2024/04/05 10:40:59;;;;;;;3.70;2.10;;;;;;;20.37;30.85;99573.54;106848;1267;60196;-39
2024/04/05 10:43:27;;;;;;;2.60;2.10;;;;;;;20.56;30.38;99570.21;106864;1263;73456;-38
2024/04/05 10:45:56;;;;;;;4.50;2.10;;;;;;;20.75;30.67;99569.15;106872;1263;67109;-38
2024/04/05 10:48:24;;;;;;;5.20;2.00;;;;;;;20.93;30.18;99571.25;106855;1263;72985;-39
2024/04/05 10:50:52;;;;;;;3.10;2.20;;;;;;;21.03;30.10;99570.64;106826;1267;60504;-39
2024/04/05 10:53:21;;;;;;;5.70;2.60;;;;;;;21.10;30.48;99570.19;106890;1262;60381;-39
2024/04/05 10:55:52;;;;;;;4.40;2.10;;;;;;;21.24;30.04;99563.23;106906;1265;74264;-39
2024/04/05 10:58:21;;;;;;;3.60;2.40;;;;;;;21.40;29.72;99565.64;106849;1262;68382;-38
2024/04/05 11:00:48;;;;;;;3.30;2.10;;;;;;;21.52;29.25;99558.05;106825;1263;71923;-39
2024/04/05 11:03:20;;;;;;;3.60;2.30;;;;;;;21.70;29.37;99555.52;106763;1262;62228;-38
2024/04/05 11:05:48;;;;;;;3.60;2.20;;;;;;;21.94;29.04;99559.30;106832;1262;60549;-39
2024/04/05 11:08:18;;;;;;;3.40;2.40;;;;;;;22.08;28.75;99559.18;106817;1263;73036;-39
2024/04/05 11:10:46;;;;;;;3.20;2.50;;;;;;;22.13;29.06;99557.52;106841;1263;68355;-39
2024/04/05 11:13:18;;;;;;;4.10;2.50;;;;;;;22.02;29.47;99546.94;106706;1262;72795;-39
2024/04/05 11:15:45;;;;;;;3.90;2.40;;;;;;;21.84;29.73;99544.06;106756;1267;60640;-39
2024/04/05 11:18:13;;;;;;;3.20;2.40;;;;;;;21.70;29.89;99543.76;106900;1267;60204;-39
2024/04/05 11:20:41;;;;;;;2.80;2.20;;;;;;;21.59;30.12;99543.02;106816;1263;74248;-39
2024/04/05 11:23:14;;;;;;;5.60;3.00;;;;;;;21.62;30.28;99537.33;106721;1262;66990;-39
2024/04/05 11:25:41;;;;;;;4.00;2.80;;;;;;;21.74;30.32;99535.39;106831;1263;71517;-39
2024/04/05 11:28:12;;;;;;;4.60;2.60;;;;;;;21.81;30.01;99536.97;106829;1267;62485;-39
2024/04/05 11:30:40;;;;;;;5.00;2.70;;;;;;;21.93;30.15;99534.23;106860;1264;60614;-39
2024/04/05 11:33:08;;;;;;;3.10;2.60;;;;;;;22.12;29.78;99534.17;106825;1263;73285;-39
2024/04/05 11:35:38;;;;;;;3.50;2.40;;;;;;;22.32;29.61;99533.88;106825;1263;68338;-39
2024/04/05 11:38:05;;;;;;;5.10;2.80;;;;;;;22.51;29.16;99521.94;106800;1263;74896;-39